EGEO

Oban Airport

North Connel, United Kingdom
METAR EGEO 221550Z 23013KT 9999 VCSH SCT022 BKN044 10/06 Q1002
Observed Flight Rules
Apr-22 @ 15:50 UTC (2 hours ago) Visual Flight Rules
Wind Visibility Clouds
230° at 13 knots 10,000+ meters
  • Scattered at 2,200' AGL
  • Broken at 4,400' AGL
Temperatures Readings
Current 10°C / 50°F
Dewpoint 6°C / 43°F
Humidity 76%
Altimeter 29.59" Hg
Pressure 1002 hPa
Elevation 6
METAR EGEO 221550Z 23013KT 9999 VCSH SCT022 BKN044 10/06 Q1002
Observed Flight Rules
Apr-22 @ 15:50 UTC
(2 hours ago)
VFR
Wind Visibility
230° at 13 knots 10,000+ meters
Clouds
  • Scattered at 2,200' AGL
  • Broken at 4,400' AGL
Temperature Dewpoint
10°C / 50°F 6°C / 43°F
Humidity Altimeter Pressure
76% 29.59" Hg 1002 hPa